MSC Vega — D5BE4 — position and weather

sailwx.info

Track history (hours):
 
Tides and Currents Weather Stations Pressure Air Temp Water Temp Dewpoint Dewpoint Depression Visibility Wind Speed Wind Dir Waves Ship Positions

MSC Vega

Last reported at 2018-Feb-25 19:21 UTC. Time now 2018-Feb-25 19:59 UTC.
Position N 01°20' E 103°33'.

Length 366 m; draft 14.6 m.

Type: Ship (hazmat cat A). MMSI: 636015506.

Date/timePositionNaut miles runAvg speedWind from/ knotsBaromVisibWave heightAir tempDewpointWater temp
2018-Feb-25 19:21N 01°20' E 103°33'0 0.0
2018-Feb-25 18:45N 01°20' E 103°33'0 0.0
2018-Feb-25 18:30N 01°20' E 103°33'0 0.0
2018-Feb-25 17:48N 01°20' E 103°33'0 0.0
2018-Feb-25 17:30N 01°20' E 103°33'0 0.0
2018-Feb-25 17:00N 01°20' E 103°33'0 0.0
2018-Feb-25 16:24N 01°20' E 103°33'0 0.0
2018-Feb-25 15:48N 01°20' E 103°33'0 0.0
2018-Feb-25 15:30N 01°20' E 103°33'0 0.0
2018-Feb-25 15:00N 01°20' E 103°33'0 0.0
2018-Feb-25 14:21N 01°20' E 103°33'0 0.0
2018-Feb-25 14:00N 01°20' E 103°33'0 0.0
2018-Feb-25 13:27N 01°20' E 103°33'0 0.0
2018-Feb-25 12:45N 01°20' E 103°33'0 0.0
2018-Feb-25 12:30N 01°20' E 103°33'0 0.0
2018-Feb-25 11:54N 01°20' E 103°33'0 0.0
2018-Feb-25 11:21N 01°20' E 103°33'0 0.0
2018-Feb-25 10:57N 01°20' E 103°33'0 0.0
2018-Feb-25 10:21N 01°20' E 103°33'0 0.0
2018-Feb-25 09:45N 01°20' E 103°33'0 0.0
2018-Feb-25 09:27N 01°20' E 103°33'0 0.0
2018-Feb-25 08:51N 01°20' E 103°33'0 0.0
2018-Feb-25 08:21N 01°20' E 103°33'0 0.0
2018-Feb-25 08:00N 01°20' E 103°33'0 0.0
2018-Feb-25 07:27N 01°20' E 103°33'0 0.0
2018-Feb-25 06:54N 01°20' E 103°33'0 0.0
2018-Feb-25 06:27N 01°20' E 103°33'0 0.0
2018-Feb-25 06:00N 01°20' E 103°33'0 0.0
2018-Feb-25 05:27N 01°20' E 103°33'0 0.0
2018-Feb-25 04:57N 01°20' E 103°33'0 0.0
2018-Feb-25 04:30N 01°20' E 103°33'0 0.0
2018-Feb-25 03:57N 01°20' E 103°33'0 0.0
2018-Feb-25 03:30N 01°20' E 103°33'0 0.0
2018-Feb-25 02:57N 01°20' E 103°33'0 0.0
2018-Feb-25 02:27N 01°20' E 103°33'0 0.0
2018-Feb-25 01:54N 01°20' E 103°33'0 0.0
2018-Feb-25 01:27N 01°20' E 103°33'0 0.0
2018-Feb-25 00:57N 01°20' E 103°33'0 0.1
2018-Feb-25 00:30N 01°20' E 103°33'0 0.0
2018-Feb-24 23:57N 01°20' E 103°33'0 0.0
2018-Feb-24 23:30N 01°20' E 103°33'0 0.0
2018-Feb-24 22:57N 01°20' E 103°33'0 0.0
2018-Feb-24 22:24N 01°20' E 103°33'0 0.0
2018-Feb-24 21:57N 01°20' E 103°33'0 0.0
2018-Feb-24 21:30N 01°20' E 103°33'0 0.0
2018-Feb-24 20:57N 01°20' E 103°33'0 0.0
2018-Feb-24 20:30N 01°20' E 103°33'0 0.0
2018-Feb-24 19:54N 01°20' E 103°33'0 0.0
2018-Feb-24 19:27N 01°20' E 103°33'0 0.0
2018-Feb-24 18:57N 01°20' E 103°33'0 0.0
2018-Feb-24 18:24N 01°20' E 103°33'0 0.0
2018-Feb-24 17:51N 01°20' E 103°33'0 0.0
2018-Feb-24 17:30N 01°20' E 103°33'0 0.0
2018-Feb-24 16:57N 01°20' E 103°33'0 0.0
2018-Feb-24 16:30N 01°20' E 103°33'0 0.0
2018-Feb-24 15:54N 01°20' E 103°33'0 0.0
2018-Feb-24 15:30N 01°20' E 103°33'0 0.0
2018-Feb-24 14:57N 01°20' E 103°33'0 0.0
2018-Feb-24 14:27N 01°20' E 103°33'0 0.6
2018-Feb-24 14:00N 01°20' E 103°33'4 7.0
2018-Feb-24 13:30N 01°16' E 103°33'5 9.2
2018-Feb-24 13:00N 01°12' E 103°32'1 1.8
2018-Feb-24 12:30N 01°11' E 103°32'1 2.6
2018-Feb-24 11:59N 01°10' E 103°32'0 0.7
2018-Feb-24 11:30N 01°10' E 103°31'0 0.3
2018-Feb-24 10:59N 01°10' E 103°31'0 0.6
2018-Feb-24 10:29N 01°10' E 103°31'0 0.8
2018-Feb-24 09:55N 01°10' E 103°32'0 0.8
2018-Feb-24 09:29N 01°11' E 103°32'2 3.9
2018-Feb-24 09:00N 01°11' E 103°34'3 6.5
2018-Feb-24 08:30N 01°11' E 103°37'3 6.6
2018-Feb-24 08:01N 01°11' E 103°40'4 7.5
2018-Feb-24 07:30N 01°09' E 103°43'4 8.0
2018-Feb-24 06:59N 01°10' E 103°47'4 9.1
2018-Feb-24 06:30N 01°12' E 103°51'3 6.7
2018-Feb-24 06:00N 01°13' E 103°54'3 6.9
2018-Feb-24 05:30N 01°15' E 103°57'4 7.0
2018-Feb-24 05:00N 01°16' E 104°01'3 6.0
2018-Feb-24 04:29N 01°16' E 104°04'3 5.8
2018-Feb-24 03:58N 01°16' E 104°07'3 5.5
2018-Feb-24 03:26N 01°17' E 104°10'5 6.5
2018-Feb-24 02:44N 01°17' E 104°14'2 6.4
2018-Feb-24 02:29N 01°18' E 104°16'  
2018-Feb-20 07:19N 23°13' E 117°32'722.7
2018-Feb-20 07:00N 23°19' E 117°37'1122.6
2018-Feb-20 06:30N 23°27' E 117°46'1122.7
2018-Feb-20 06:00N 23°34' E 117°55'1122.5
2018-Feb-20 05:30N 23°42' E 118°05'1222.3
2018-Feb-20 04:59N 23°49' E 118°14'1022.2
2018-Feb-20 04:30N 23°56' E 118°23'1122.2
2018-Feb-20 04:00N 24°03' E 118°32'1122.1
2018-Feb-20 03:30N 24°11' E 118°41'426 8.8
2018-Feb-18 03:20N 30°37' E 122°03'2 6.1
2018-Feb-18 02:56N 30°36' E 122°06'  
Track history (hours):
 
Tides and Currents Weather Stations Pressure Air Temp Water Temp Dewpoint Dewpoint Depression Visibility Wind Speed Wind Dir Waves Ship Positions

MSC Vega

Last reported at 2018-Feb-25 19:21 UTC. Time now 2018-Feb-25 19:59 UTC.
Position N 01°20' E 103°33'.

Length 366 m; draft 14.6 m.

Type: Ship (hazmat cat A). MMSI: 636015506.

Date/timePositionNaut miles runAvg speedWind from/ knotsBaromVisibWave heightAir tempDewpointWater temp
2018-Feb-25 19:21N 01°20' E 103°33'0 0.0
2018-Feb-25 18:45N 01°20' E 103°33'0 0.0
2018-Feb-25 18:30N 01°20' E 103°33'0 0.0
2018-Feb-25 17:48N 01°20' E 103°33'0 0.0
2018-Feb-25 17:30N 01°20' E 103°33'0 0.0
2018-Feb-25 17:00N 01°20' E 103°33'0 0.0
2018-Feb-25 16:24N 01°20' E 103°33'0 0.0
2018-Feb-25 15:48N 01°20' E 103°33'0 0.0
2018-Feb-25 15:30N 01°20' E 103°33'0 0.0
2018-Feb-25 15:00N 01°20' E 103°33'0 0.0
2018-Feb-25 14:21N 01°20' E 103°33'0 0.0
2018-Feb-25 14:00N 01°20' E 103°33'0 0.0
2018-Feb-25 13:27N 01°20' E 103°33'0 0.0
2018-Feb-25 12:45N 01°20' E 103°33'0 0.0
2018-Feb-25 12:30N 01°20' E 103°33'0 0.0
2018-Feb-25 11:54N 01°20' E 103°33'0 0.0
2018-Feb-25 11:21N 01°20' E 103°33'0 0.0
2018-Feb-25 10:57N 01°20' E 103°33'0 0.0
2018-Feb-25 10:21N 01°20' E 103°33'0 0.0
2018-Feb-25 09:45N 01°20' E 103°33'0 0.0
2018-Feb-25 09:27N 01°20' E 103°33'0 0.0
2018-Feb-25 08:51N 01°20' E 103°33'0 0.0
2018-Feb-25 08:21N 01°20' E 103°33'0 0.0
2018-Feb-25 08:00N 01°20' E 103°33'0 0.0
2018-Feb-25 07:27N 01°20' E 103°33'0 0.0
2018-Feb-25 06:54N 01°20' E 103°33'0 0.0
2018-Feb-25 06:27N 01°20' E 103°33'0 0.0
2018-Feb-25 06:00N 01°20' E 103°33'0 0.0
2018-Feb-25 05:27N 01°20' E 103°33'0 0.0
2018-Feb-25 04:57N 01°20' E 103°33'0 0.0
2018-Feb-25 04:30N 01°20' E 103°33'0 0.0
2018-Feb-25 03:57N 01°20' E 103°33'0 0.0
2018-Feb-25 03:30N 01°20' E 103°33'0 0.0
2018-Feb-25 02:57N 01°20' E 103°33'0 0.0
2018-Feb-25 02:27N 01°20' E 103°33'0 0.0
2018-Feb-25 01:54N 01°20' E 103°33'0 0.0
2018-Feb-25 01:27N 01°20' E 103°33'0 0.0
2018-Feb-25 00:57N 01°20' E 103°33'0 0.1
2018-Feb-25 00:30N 01°20' E 103°33'0 0.0
2018-Feb-24 23:57N 01°20' E 103°33'0 0.0
2018-Feb-24 23:30N 01°20' E 103°33'0 0.0
2018-Feb-24 22:57N 01°20' E 103°33'0 0.0
2018-Feb-24 22:24N 01°20' E 103°33'0 0.0
2018-Feb-24 21:57N 01°20' E 103°33'0 0.0
2018-Feb-24 21:30N 01°20' E 103°33'0 0.0
2018-Feb-24 20:57N 01°20' E 103°33'0 0.0
2018-Feb-24 20:30N 01°20' E 103°33'0 0.0
2018-Feb-24 19:54N 01°20' E 103°33'0 0.0
2018-Feb-24 19:27N 01°20' E 103°33'0 0.0
2018-Feb-24 18:57N 01°20' E 103°33'0 0.0
2018-Feb-24 18:24N 01°20' E 103°33'0 0.0
2018-Feb-24 17:51N 01°20' E 103°33'0 0.0
2018-Feb-24 17:30N 01°20' E 103°33'0 0.0
2018-Feb-24 16:57N 01°20' E 103°33'0 0.0
2018-Feb-24 16:30N 01°20' E 103°33'0 0.0
2018-Feb-24 15:54N 01°20' E 103°33'0 0.0
2018-Feb-24 15:30N 01°20' E 103°33'0 0.0
2018-Feb-24 14:57N 01°20' E 103°33'0 0.0
2018-Feb-24 14:27N 01°20' E 103°33'0 0.6
2018-Feb-24 14:00N 01°20' E 103°33'4 7.0
2018-Feb-24 13:30N 01°16' E 103°33'5 9.2
2018-Feb-24 13:00N 01°12' E 103°32'1 1.8
2018-Feb-24 12:30N 01°11' E 103°32'1 2.6
2018-Feb-24 11:59N 01°10' E 103°32'0 0.7
2018-Feb-24 11:30N 01°10' E 103°31'0 0.3
2018-Feb-24 10:59N 01°10' E 103°31'0 0.6
2018-Feb-24 10:29N 01°10' E 103°31'0 0.8
2018-Feb-24 09:55N 01°10' E 103°32'0 0.8
2018-Feb-24 09:29N 01°11' E 103°32'2 3.9
2018-Feb-24 09:00N 01°11' E 103°34'3 6.5
2018-Feb-24 08:30N 01°11' E 103°37'3 6.6
2018-Feb-24 08:01N 01°11' E 103°40'4 7.5
2018-Feb-24 07:30N 01°09' E 103°43'4 8.0
2018-Feb-24 06:59N 01°10' E 103°47'4 9.1
2018-Feb-24 06:30N 01°12' E 103°51'3 6.7
2018-Feb-24 06:00N 01°13' E 103°54'3 6.9
2018-Feb-24 05:30N 01°15' E 103°57'4 7.0
2018-Feb-24 05:00N 01°16' E 104°01'3 6.0
2018-Feb-24 04:29N 01°16' E 104°04'3 5.8
2018-Feb-24 03:58N 01°16' E 104°07'3 5.5
2018-Feb-24 03:26N 01°17' E 104°10'5 6.5
2018-Feb-24 02:44N 01°17' E 104°14'2 6.4
2018-Feb-24 02:29N 01°18' E 104°16'  
2018-Feb-20 07:19N 23°13' E 117°32'722.7
2018-Feb-20 07:00N 23°19' E 117°37'1122.6
2018-Feb-20 06:30N 23°27' E 117°46'1122.7
2018-Feb-20 06:00N 23°34' E 117°55'1122.5
2018-Feb-20 05:30N 23°42' E 118°05'1222.3
2018-Feb-20 04:59N 23°49' E 118°14'1022.2
2018-Feb-20 04:30N 23°56' E 118°23'1122.2
2018-Feb-20 04:00N 24°03' E 118°32'1122.1
2018-Feb-20 03:30N 24°11' E 118°41'426 8.8
2018-Feb-18 03:20N 30°37' E 122°03'2 6.1
2018-Feb-18 02:56N 30°36' E 122°06'  

Dump ship's entire track history